Time;durP1;ratioP1;P1;durP2;ratioP2;P2;SDS_P1;SDS_P2;PMS_P1;PMS_P2;Temp;Humidity;BMP_temperature;BMP_pressure;BME280_temperature;BME280_humidity;BME280_pressure;Samples;Min_cycle;Max_cycle;Signal;HPM_P1;HPM_P2
2022/07/19 00:00:23;;;;;;;3.60;2.20;;;16.10;99.90;;;;;;5127738;28;20235;-79
2022/07/19 00:02:51;;;;;;;3.10;2.30;;;16.00;99.90;;;;;;5121724;27;20534;-76
2022/07/19 00:05:21;;;;;;;3.97;2.13;;;16.00;99.90;;;;;;5128431;28;20204;-79
2022/07/19 00:07:49;;;;;;;7.53;2.40;;;15.90;99.90;;;;;;5117827;28;20297;-77
2022/07/19 00:10:21;;;;;;;4.10;2.33;;;15.80;99.90;;;;;;5112109;28;20609;-77
2022/07/19 00:12:50;;;;;;;2.87;2.00;;;15.80;99.90;;;;;;5112279;28;20785;-78
2022/07/19 00:15:20;;;;;;;3.47;2.33;;;15.70;99.90;;;;;;5123943;27;20418;-78
2022/07/19 00:17:49;;;;;;;6.03;2.50;;;15.70;99.90;;;;;;5136846;27;20717;-77
2022/07/19 00:20:20;;;;;;;3.60;2.37;;;15.70;99.90;;;;;;5136758;27;20205;-78
2022/07/19 00:22:48;;;;;;;4.27;2.43;;;15.60;99.90;;;;;;5136409;27;20262;-78
2022/07/19 00:25:17;;;;;;;2.63;2.13;;;15.60;99.90;;;;;;5134781;27;20277;-77
2022/07/19 00:27:45;;;;;;;6.03;2.43;;;15.50;99.90;;;;;;5136906;27;20217;-79
2022/07/19 00:30:14;;;;;;;5.17;2.50;;;15.50;99.90;;;;;;5126269;27;20201;-78
2022/07/19 00:32:43;;;;;;;4.23;2.20;;;15.50;99.90;;;;;;5122455;27;20289;-79
2022/07/19 00:35:12;;;;;;;4.17;2.60;;;15.50;99.90;;;;;;5116080;28;20756;-78
2022/07/19 00:37:43;;;;;;;4.83;2.30;;;15.30;99.90;;;;;;5117308;27;20225;-80
2022/07/19 00:40:16;;;;;;;3.17;2.60;;;15.30;99.90;;;;;;5134177;27;20308;-80
2022/07/19 00:42:44;;;;;;;4.80;2.40;;;15.30;99.90;;;;;;5120583;27;20676;-79
2022/07/19 00:45:13;;;;;;;4.27;2.40;;;15.30;99.90;;;;;;5133637;27;20229;-76
2022/07/19 00:47:43;;;;;;;3.43;2.33;;;15.20;99.90;;;;;;5136172;27;20667;-79
2022/07/19 00:50:12;;;;;;;3.13;2.50;;;15.20;99.90;;;;;;5122673;27;20209;-77
2022/07/19 00:52:41;;;;;;;5.13;2.60;;;15.10;99.90;;;;;;5115563;28;20616;-77
2022/07/19 00:55:10;;;;;;;2.50;2.30;;;15.10;99.90;;;;;;5127514;27;20744;-77
2022/07/19 00:57:39;;;;;;;3.10;2.60;;;15.10;99.90;;;;;;5136189;27;20262;-76
2022/07/19 01:00:10;;;;;;;3.73;2.60;;;15.00;99.90;;;;;;5128315;27;20285;-78
2022/07/19 01:02:38;;;;;;;5.37;2.50;;;15.00;99.90;;;;;;5115810;28;20218;-76
2022/07/19 01:05:13;;;;;;;3.87;2.53;;;14.90;99.90;;;;;;5120829;27;20197;-76
2022/07/19 01:07:45;;;;;;;3.73;2.50;;;14.90;99.90;;;;;;5122522;27;20193;-76
2022/07/19 01:10:16;;;;;;;4.63;2.23;;;14.90;99.90;;;;;;5122993;27;20587;-77
2022/07/19 01:12:44;;;;;;;3.87;2.50;;;14.90;99.90;;;;;;5116338;27;20226;-79
2022/07/19 01:15:17;;;;;;;2.53;2.33;;;14.80;99.90;;;;;;5129062;27;20218;-79
2022/07/19 01:17:46;;;;;;;3.60;2.20;;;14.80;99.90;;;;;;5133996;27;20263;-79
2022/07/19 01:20:16;;;;;;;2.87;2.40;;;14.80;99.90;;;;;;5135259;27;20202;-77
2022/07/19 01:22:47;;;;;;;3.70;2.47;;;14.80;99.90;;;;;;5126131;27;20205;-78
2022/07/19 01:25:20;;;;;;;2.57;2.37;;;14.80;99.90;;;;;;5119951;27;20194;-79
2022/07/19 01:27:51;;;;;;;3.80;2.40;;;14.90;99.90;;;;;;5114370;28;20360;-76
2022/07/19 01:30:22;;;;;;;4.23;2.23;;;14.90;99.90;;;;;;5114897;28;20636;-79
2022/07/19 01:32:51;;;;;;;2.83;2.50;;;14.90;99.90;;;;;;5116387;27;20198;-78
2022/07/19 01:35:20;;;;;;;5.17;2.70;;;14.90;99.90;;;;;;5123327;27;20228;-77
2022/07/19 01:37:50;;;;;;;3.07;2.60;;;14.90;99.90;;;;;;5132170;27;20298;-77
2022/07/19 01:40:20;;;;;;;3.27;2.50;;;14.90;99.90;;;;;;5131169;27;20706;-78
2022/07/19 01:42:51;;;;;;;3.97;2.60;;;14.80;99.90;;;;;;5134440;27;20213;-79
2022/07/19 01:45:20;;;;;;;3.47;2.90;;;14.80;99.90;;;;;;5134496;27;20237;-75
2022/07/19 01:47:49;;;;;;;3.63;2.67;;;14.70;99.90;;;;;;5134592;27;20228;-75
2022/07/19 01:50:18;;;;;;;2.90;2.60;;;14.60;99.90;;;;;;5118893;27;20327;-76
2022/07/19 01:52:49;;;;;;;2.67;2.47;;;14.60;99.90;;;;;;5114713;27;20234;-75
2022/07/19 01:55:19;;;;;;;3.97;2.50;;;14.50;99.90;;;;;;5134502;27;20324;-75
2022/07/19 01:57:48;;;;;;;3.37;2.47;;;14.50;99.90;;;;;;5115621;27;20663;-76
2022/07/19 02:00:16;;;;;;;6.13;2.60;;;14.40;99.90;;;;;;5121508;27;20285;-79
2022/07/19 02:02:44;;;;;;;4.93;2.70;;;14.40;99.90;;;;;;5126149;27;20306;-75
2022/07/19 02:05:13;;;;;;;3.20;2.40;;;14.50;99.90;;;;;;5123917;27;20202;-75
2022/07/19 02:07:47;;;;;;;2.97;2.57;;;14.50;99.90;;;;;;5116341;27;20190;-77
2022/07/19 02:10:18;;;;;;;4.30;2.80;;;14.50;99.90;;;;;;5121822;27;20258;-79
2022/07/19 02:12:47;;;;;;;4.83;2.53;;;14.60;99.90;;;;;;5124675;27;20629;-79
2022/07/19 02:15:17;;;;;;;4.83;2.70;;;14.60;99.90;;;;;;5132738;27;20582;-78
2022/07/19 02:17:46;;;;;;;4.87;2.90;;;14.50;99.90;;;;;;5133886;27;20731;-76
2022/07/19 02:20:15;;;;;;;3.93;2.90;;;14.60;99.90;;;;;;5134018;27;20206;-76
2022/07/19 02:22:43;;;;;;;3.93;2.80;;;14.50;99.90;;;;;;5120602;27;20253;-77
2022/07/19 02:25:15;;;;;;;7.83;3.13;;;14.50;99.90;;;;;;5115434;27;20201;-78
2022/07/19 02:27:46;;;;;;;6.10;2.80;;;14.50;99.90;;;;;;5113489;27;20696;-75
2022/07/19 02:30:16;;;;;;;3.97;2.80;;;14.50;99.90;;;;;;5125167;27;20229;-76
2022/07/19 02:32:44;;;;;;;3.70;3.13;;;14.50;99.90;;;;;;5122519;27;20203;-76
2022/07/19 02:35:13;;;;;;;4.67;3.37;;;14.50;99.90;;;;;;5113478;28;20317;-78
2022/07/19 02:37:42;;;;;;;5.77;3.43;;;14.50;99.90;;;;;;5113448;28;20295;-77
2022/07/19 02:40:12;;;;;;;4.10;3.40;;;14.50;99.90;;;;;;5113023;28;20316;-77
2022/07/19 02:42:41;;;;;;;5.90;3.37;;;14.50;99.90;;;;;;5124163;27;20209;-78
2022/07/19 02:45:11;;;;;;;4.07;3.50;;;14.50;99.90;;;;;;5127254;27;20229;-74
2022/07/19 02:47:39;;;;;;;4.67;3.63;;;14.40;99.90;;;;;;5129784;27;20228;-77
2022/07/19 02:50:08;;;;;;;4.73;3.30;;;14.40;99.90;;;;;;5121296;27;20573;-77
2022/07/19 02:52:36;;;;;;;4.40;3.30;;;14.30;99.90;;;;;;5128867;27;20256;-79
2022/07/19 02:55:09;;;;;;;4.07;3.57;;;14.20;99.90;;;;;;5113310;28;20313;-77
2022/07/19 02:57:37;;;;;;;5.70;3.63;;;14.20;99.90;;;;;;5118815;27;20203;-78
2022/07/19 03:00:08;;;;;;;9.23;3.50;;;14.10;99.90;;;;;;5133930;27;20305;-78
2022/07/19 03:02:37;;;;;;;5.27;3.57;;;14.10;99.90;;;;;;5129945;27;20639;-78
2022/07/19 03:05:06;;;;;;;5.07;3.33;;;14.10;99.90;;;;;;5133453;27;20202;-77
2022/07/19 03:07:36;;;;;;;5.40;3.63;;;14.00;99.90;;;;;;5133019;27;20246;-77
2022/07/19 03:10:06;;;;;;;5.20;3.63;;;14.00;99.90;;;;;;5113848;27;20202;-79
2022/07/19 03:12:34;;;;;;;4.83;3.97;;;13.90;99.90;;;;;;5122640;27;20198;-77
2022/07/19 03:15:03;;;;;;;5.77;3.63;;;13.90;99.90;;;;;;5133380;27;20210;-78
2022/07/19 03:17:32;;;;;;;4.67;3.33;;;13.80;99.90;;;;;;5129776;27;20566;-80
2022/07/19 03:20:02;;;;;;;3.73;3.37;;;13.80;99.90;;;;;;5128132;27;20300;-78
2022/07/19 03:22:30;;;;;;;5.73;3.73;;;13.70;99.90;;;;;;5123143;27;20233;-78
2022/07/19 03:25:04;;;;;;;4.97;3.07;;;13.70;99.90;;;;;;5133425;27;20213;-78
2022/07/19 03:27:32;;;;;;;4.27;3.50;;;13.70;99.90;;;;;;5130005;27;20575;-79
2022/07/19 03:30:00;;;;;;;6.27;3.60;;;13.70;99.90;;;;;;5132416;27;20322;-74
2022/07/19 03:32:28;;;;;;;4.70;3.07;;;13.60;99.90;;;;;;5132263;27;20700;-77
2022/07/19 03:34:57;;;;;;;3.87;3.37;;;13.70;99.90;;;;;;5132948;27;20285;-79
2022/07/19 03:37:26;;;;;;;5.40;3.33;;;13.60;99.90;;;;;;5132238;27;20304;-79
2022/07/19 03:39:57;;;;;;;5.40;3.10;;;13.60;99.90;;;;;;5130855;27;20894;-79
2022/07/19 03:42:28;;;;;;;6.00;3.50;;;13.50;99.90;;;;;;5130645;27;20232;-79
2022/07/19 03:44:56;;;;;;;6.73;3.70;;;13.60;99.90;;;;;;5129472;27;20293;-79
2022/07/19 03:47:27;;;;;;;3.83;3.40;;;13.60;99.90;;;;;;5130863;27;20667;-77
2022/07/19 03:49:55;;;;;;;5.43;3.40;;;13.60;99.90;;;;;;5130326;27;20288;-80
2022/07/19 03:52:23;;;;;;;3.87;3.13;;;13.60;99.90;;;;;;5131324;27;20284;-79
2022/07/19 03:54:53;;;;;;;3.80;3.00;;;13.70;99.90;;;;;;5131704;27;20204;-78
2022/07/19 03:57:21;;;;;;;8.67;3.70;;;13.70;99.90;;;;;;5127152;28;20245;-79
2022/07/19 03:59:49;;;;;;;4.27;3.03;;;13.70;99.90;;;;;;5131977;28;20212;-78
2022/07/19 04:02:18;;;;;;;5.03;3.10;;;13.70;99.90;;;;;;5129917;28;20205;-79
2022/07/19 04:04:46;;;;;;;5.60;3.10;;;13.70;99.90;;;;;;5128144;28;20211;-79
2022/07/19 04:07:15;;;;;;;7.17;3.50;;;13.70;99.90;;;;;;5111875;28;20730;-80
2022/07/19 04:09:43;;;;;;;3.43;3.07;;;13.80;99.90;;;;;;5111537;28;20628;-79
2022/07/19 04:12:12;;;;;;;3.27;2.97;;;13.80;99.90;;;;;;5112765;28;20289;-79
2022/07/19 04:14:41;;;;;;;4.27;3.07;;;13.90;99.90;;;;;;5111480;28;20205;-79
2022/07/19 04:17:09;;;;;;;6.10;3.20;;;13.90;99.90;;;;;;5112543;28;20347;-78
2022/07/19 04:19:37;;;;;;;4.10;3.33;;;13.90;99.90;;;;;;5114399;28;20255;-77
2022/07/19 04:22:05;;;;;;;5.00;3.40;;;14.00;99.90;;;;;;5116182;28;20232;-78
2022/07/19 04:24:34;;;;;;;5.20;3.17;;;14.10;99.90;;;;;;5118995;28;20202;-76
2022/07/19 04:27:04;;;;;;;4.50;3.50;;;14.20;99.90;;;;;;5112057;28;20652;-78
2022/07/19 04:29:35;;;;;;;5.43;3.53;;;14.20;99.90;;;;;;5128754;28;20321;-78
2022/07/19 04:32:03;;;;;;;4.87;3.33;;;14.20;99.90;;;;;;5130131;28;20329;-77
2022/07/19 04:34:32;;;;;;;5.43;3.50;;;14.30;99.90;;;;;;5129910;28;20202;-77
2022/07/19 04:37:00;;;;;;;6.07;4.20;;;14.30;99.90;;;;;;5119346;28;20668;-75
2022/07/19 04:39:28;;;;;;;10.37;3.90;;;14.40;99.90;;;;;;5121429;28;20304;-78
2022/07/19 04:41:58;;;;;;;7.10;3.73;;;14.50;99.90;;;;;;5111519;28;20249;-77
2022/07/19 04:44:28;;;;;;;5.80;4.03;;;14.70;99.90;;;;;;5121472;28;20566;-79
2022/07/19 04:46:58;;;;;;;4.87;4.27;;;14.80;99.90;;;;;;5131915;28;20186;-78
2022/07/19 04:49:26;;;;;;;5.83;4.07;;;14.90;99.90;;;;;;5130764;28;20689;-78
2022/07/19 04:51:54;;;;;;;5.80;4.17;;;15.00;99.90;;;;;;5132094;28;20577;-80
2022/07/19 04:54:25;;;;;;;7.73;4.30;;;15.00;99.90;;;;;;5131349;28;20248;-75
2022/07/19 04:56:53;;;;;;;7.67;4.70;;;15.10;99.90;;;;;;5132567;28;20217;-76
2022/07/19 04:59:22;;;;;;;8.63;5.23;;;15.20;99.90;;;;;;5131770;28;20270;-75
2022/07/19 05:01:50;;;;;;;5.73;4.53;;;15.20;99.90;;;;;;5131730;27;20663;-76
2022/07/19 05:04:21;;;;;;;7.50;4.23;;;15.30;99.90;;;;;;5133469;27;20292;-74
2022/07/19 05:06:56;;;;;;;10.93;4.87;;;15.30;99.90;;;;;;5135627;27;20371;-77
2022/07/19 05:09:25;;;;;;;7.80;4.23;;;15.40;99.90;;;;;;5133537;27;20192;-78
2022/07/19 05:12:00;;;;;;;8.20;4.30;;;15.40;99.90;;;;;;5135583;27;20664;-76
2022/07/19 05:14:28;;;;;;;8.70;4.70;;;15.50;99.90;;;;;;5134696;27;20300;-76
2022/07/19 05:16:56;;;;;;;5.90;4.47;;;15.70;99.90;;;;;;5134337;27;20312;-77
2022/07/19 05:19:26;;;;;;;7.97;4.50;;;15.80;99.90;;;;;;5135494;27;20240;-77
2022/07/19 05:21:54;;;;;;;8.80;4.67;;;15.90;99.90;;;;;;5135432;27;20245;-79
2022/07/19 05:24:23;;;;;;;8.63;4.60;;;15.90;99.90;;;;;;5135051;27;20339;-78
2022/07/19 05:26:51;;;;;;;8.60;4.77;;;16.10;99.90;;;;;;5135633;27;20266;-74
2022/07/19 05:29:20;;;;;;;7.30;4.30;;;16.30;99.90;;;;;;5134757;27;20209;-78
2022/07/19 05:31:49;;;;;;;11.87;4.87;;;16.30;99.90;;;;;;5135235;27;20704;-76
2022/07/19 05:34:17;;;;;;;11.43;5.17;;;16.50;99.90;;;;;;5135280;27;20284;-75
2022/07/19 05:36:47;;;;;;;7.70;4.80;;;16.60;99.90;;;;;;5134933;27;20261;-79
2022/07/19 05:39:15;;;;;;;8.73;4.53;;;16.70;99.90;;;;;;5135206;27;20243;-77
2022/07/19 05:41:44;;;;;;;7.43;4.67;;;16.80;99.90;;;;;;5135312;27;20217;-79
2022/07/19 05:44:12;;;;;;;8.73;4.80;;;16.90;99.90;;;;;;5135121;27;20202;-73
2022/07/19 05:46:41;;;;;;;7.03;4.53;;;17.10;99.90;;;;;;5135188;27;20262;-76
2022/07/19 05:49:11;;;;;;;5.60;4.40;;;17.10;99.90;;;;;;5135221;27;20258;-77
2022/07/19 05:51:40;;;;;;;8.43;4.30;;;17.30;99.90;;;;;;5134670;27;20201;-79
2022/07/19 05:54:09;;;;;;;12.37;4.50;;;17.50;99.90;;;;;;5134903;27;20211;-75
2022/07/19 05:56:37;;;;;;;6.83;4.20;;;17.90;99.90;;;;;;5135084;27;20229;-73
2022/07/19 05:59:05;;;;;;;10.73;4.20;;;18.20;99.90;;;;;;5134816;27;20241;-74
2022/07/19 06:01:33;;;;;;;7.60;3.37;;;18.90;99.90;;;;;;5134566;27;20300;-75
2022/07/19 06:04:03;;;;;;;6.23;3.40;;;20.00;99.90;;;;;;5134786;27;20209;-75
2022/07/19 06:06:33;;;;;;;9.73;3.30;;;21.80;99.90;;;;;;5134731;27;20289;-75
2022/07/19 06:09:02;;;;;;;8.03;3.70;;;23.20;99.90;;;;;;5134530;27;20661;-76
2022/07/19 06:11:32;;;;;;;9.03;3.37;;;24.20;99.90;;;;;;5134689;27;20554;-74
2022/07/19 06:14:05;;;;;;;5.63;3.30;;;24.40;99.90;;;;;;5134330;27;20636;-75
2022/07/19 06:16:33;;;;;;;8.37;3.00;;;25.30;99.90;;;;;;5134554;27;20233;-76
2022/07/19 06:19:02;;;;;;;4.40;2.87;;;26.80;99.70;;;;;;5134366;27;20205;-78
2022/07/19 06:21:30;;;;;;;4.20;2.90;;;28.00;98.00;;;;;;5134154;27;20258;-77
2022/07/19 06:23:59;;;;;;;5.80;2.70;;;28.70;93.90;;;;;;5133889;27;20205;-78
2022/07/19 06:26:30;;;;;;;5.07;2.83;;;29.00;92.80;;;;;;5134248;27;20217;-77
2022/07/19 06:29:02;;;;;;;6.78;2.72;;;29.80;90.70;;;;;;5134144;27;20216;-78
2022/07/19 06:31:31;;;;;;;5.07;3.00;;;30.40;89.80;;;;;;5133948;27;20671;-79
2022/07/19 06:34:05;;;;;;;5.35;2.75;;;30.90;86.40;;;;;;5133851;27;20675;-78
2022/07/19 06:36:39;;;;;;;6.22;2.70;;;31.20;82.20;;;;;;5114840;27;20235;-79
2022/07/19 06:39:08;;;;;;;6.15;2.90;;;31.60;80.70;;;;;;5113392;28;20292;-78
2022/07/19 06:41:36;;;;;;;4.80;2.45;;;31.40;79.00;;;;;;5112967;28;20253;-78
2022/07/19 06:44:06;;;;;;;4.70;2.58;;;32.00;77.70;;;;;;5113221;28;20206;-78
2022/07/19 06:46:34;;;;;;;6.13;2.53;;;32.00;75.50;;;;;;5113602;28;20242;-80
2022/07/19 06:49:03;;;;;;;5.07;2.53;;;32.20;72.70;;;;;;5113236;28;20203;-77
2022/07/19 06:51:31;;;;;;;4.95;2.20;;;31.70;73.50;;;;;;5114396;27;20291;-78
2022/07/19 06:54:02;;;;;;;3.85;2.33;;;31.20;74.80;;;;;;5120167;27;20664;-77
2022/07/19 06:56:30;;;;;;;5.78;2.30;;;31.00;74.70;;;;;;5117124;27;20634;-76
2022/07/19 06:58:58;;;;;;;4.75;2.25;;;30.40;75.60;;;;;;5118232;27;20226;-79
2022/07/19 07:01:28;;;;;;;6.15;2.53;;;31.20;77.80;;;;;;5112924;28;20669;-77
2022/07/19 07:03:56;;;;;;;5.65;2.33;;;31.50;73.10;;;;;;5112960;28;20289;-78
2022/07/19 07:06:24;;;;;;;4.32;2.30;;;31.90;72.20;;;;;;5112273;28;20250;-77
2022/07/19 07:08:53;;;;;;;5.13;2.42;;;32.40;70.00;;;;;;5112772;28;20198;-77
2022/07/19 07:11:21;;;;;;;5.63;2.38;;;33.00;68.20;;;;;;5129213;27;20288;-78
2022/07/19 07:13:49;;;;;;;3.20;2.30;;;33.20;68.50;;;;;;5133013;27;20209;-79
2022/07/19 07:16:17;;;;;;;2.92;2.40;;;33.70;65.20;;;;;;5132897;27;20225;-78
2022/07/19 07:18:47;;;;;;;2.83;2.22;;;33.60;64.60;;;;;;5133191;27;20292;-79
2022/07/19 07:21:15;;;;;;;2.63;2.00;;;33.00;64.80;;;;;;5133010;27;20308;-77
2022/07/19 07:23:43;;;;;;;3.17;2.20;;;33.80;63.60;;;;;;5132844;27;20209;-80
2022/07/19 07:26:12;;;;;;;4.53;2.15;;;33.90;63.90;;;;;;5132564;27;20309;-78
2022/07/19 07:28:41;;;;;;;3.40;2.10;;;34.70;62.00;;;;;;5134602;27;20205;-79
2022/07/19 07:31:15;;;;;;;5.60;2.33;;;34.90;60.10;;;;;;5115283;27;20214;-76
2022/07/19 07:33:43;;;;;;;3.00;2.03;;;34.40;59.90;;;;;;5114782;28;20194;-80
2022/07/19 07:36:13;;;;;;;5.18;2.20;;;33.80;60.70;;;;;;5112783;28;20267;-77
2022/07/19 07:38:44;;;;;;;2.63;2.08;;;33.80;61.50;;;;;;5104157;28;20261;-78
2022/07/19 07:41:15;;;;;;;4.75;1.92;;;33.70;60.90;;;;;;5112558;28;20657;-80
2022/07/19 07:44:04;;;;;;;2.65;1.95;;;34.40;60.70;;;;;;5112846;28;20202;-77
2022/07/19 07:46:35;;;;;;;2.95;1.92;;;34.20;59.20;;;;;;5112305;28;20728;-78
2022/07/19 07:49:04;;;;;;;4.90;2.08;;;34.50;60.10;;;;;;5113006;28;20191;-77
2022/07/19 07:51:36;;;;;;;3.65;2.00;;;34.10;59.20;;;;;;5113698;28;20206;-79
2022/07/19 07:54:13;;;;;;;4.85;2.17;;;34.70;59.10;;;;;;5113714;28;20234;-78
2022/07/19 07:56:43;;;;;;;3.63;2.15;;;35.80;56.70;;;;;;5115922;27;20206;-80
2022/07/19 07:59:12;;;;;;;4.93;2.40;;;35.40;57.70;;;;;;5113642;28;20218;-80
2022/07/19 08:01:42;;;;;;;4.72;1.90;;;35.50;56.10;;;;;;5114119;28;20209;-77
2022/07/19 08:04:11;;;;;;;3.80;2.05;;;34.70;56.40;;;;;;5114456;28;20229;-78
2022/07/19 08:06:42;;;;;;;6.57;2.08;;;34.30;57.50;;;;;;5113213;28;20583;-80
2022/07/19 08:09:10;;;;;;;3.85;2.10;;;34.70;58.80;;;;;;5113039;28;20221;-80
2022/07/19 08:11:38;;;;;;;3.20;1.90;;;35.10;55.50;;;;;;5112979;28;20209;-79
2022/07/19 08:14:07;;;;;;;2.95;1.95;;;35.40;55.40;;;;;;5112990;28;20214;-78
2022/07/19 08:16:35;;;;;;;3.22;1.88;;;36.00;53.90;;;;;;5120313;28;20282;-79
2022/07/19 08:19:03;;;;;;;2.70;1.90;;;36.00;55.00;;;;;;5116557;27;20219;-79
2022/07/19 08:21:32;;;;;;;4.30;2.00;;;36.50;53.30;;;;;;5115490;28;20264;-79
2022/07/19 08:24:03;;;;;;;3.33;2.10;;;37.20;52.20;;;;;;5123309;28;20205;-79
2022/07/19 08:26:39;;;;;;;4.85;2.03;;;37.30;51.10;;;;;;5119244;28;20218;-79
2022/07/19 08:29:08;;;;;;;4.80;1.90;;;37.60;51.20;;;;;;5119002;28;20210;-78
2022/07/19 08:31:36;;;;;;;4.45;1.85;;;36.80;50.90;;;;;;5119268;28;20397;-80
2022/07/19 08:34:05;;;;;;;3.50;2.00;;;36.10;50.50;;;;;;5116948;28;20278;-77
2022/07/19 08:36:33;;;;;;;3.20;2.10;;;35.70;51.60;;;;;;5118129;28;20206;-79
2022/07/19 08:39:03;;;;;;;3.70;2.13;;;35.60;53.20;;;;;;5120818;28;20222;-80
2022/07/19 08:41:34;;;;;;;3.78;2.05;;;36.30;53.20;;;;;;5120733;28;20222;-78
2022/07/19 08:44:07;;;;;;;3.33;2.10;;;35.40;51.40;;;;;;5118955;28;20218;-78
2022/07/19 08:46:37;;;;;;;5.07;1.98;;;36.10;51.60;;;;;;5121007;28;20218;-79
2022/07/19 08:49:05;;;;;;;2.83;1.85;;;36.30;51.20;;;;;;5120667;28;20218;-79
2022/07/19 08:51:34;;;;;;;2.28;1.73;;;35.20;51.60;;;;;;5120821;28;20216;-78
2022/07/19 08:54:04;;;;;;;4.95;1.95;;;36.00;51.00;;;;;;5130796;27;20299;-78
2022/07/19 08:59:18;;;;;;;3.97;1.98;;;36.50;49.60;;;;;;5140404;27;20600;-79
2022/07/19 09:01:46;;;;;;;5.00;2.00;;;36.60;49.90;;;;;;5144937;27;20240;-79
2022/07/19 09:04:16;;;;;;;3.95;1.80;;;36.10;48.80;;;;;;5146097;27;20292;-79
2022/07/19 09:06:46;;;;;;;3.30;1.90;;;34.80;49.90;;;;;;5150612;27;20251;-79
2022/07/19 09:09:18;;;;;;;4.55;1.95;;;35.20;50.80;;;;;;5148367;27;20197;-78
2022/07/19 09:11:51;;;;;;;2.45;1.70;;;35.20;51.90;;;;;;5130807;27;20213;-78
2022/07/19 09:14:23;;;;;;;4.47;1.75;;;35.90;50.30;;;;;;5127469;28;20244;-78
2022/07/19 09:16:53;;;;;;;5.88;2.10;;;35.60;49.10;;;;;;5126707;28;20222;-77
2022/07/19 09:19:24;;;;;;;5.75;1.80;;;34.90;49.20;;;;;;5126775;28;20263;-79
2022/07/19 09:21:58;;;;;;;3.33;1.85;;;34.40;49.40;;;;;;5130889;28;20209;-78
2022/07/19 09:24:30;;;;;;;6.18;1.80;;;34.80;49.40;;;;;;5130949;28;20242;-78
2022/07/19 09:27:06;;;;;;;3.95;1.70;;;34.80;49.60;;;;;;5128081;28;20236;-78
2022/07/19 09:29:36;;;;;;;5.03;1.80;;;35.40;49.00;;;;;;5122675;28;20190;-77
2022/07/19 09:32:08;;;;;;;5.80;1.75;;;34.90;49.50;;;;;;5126416;28;20231;-76
2022/07/19 09:34:39;;;;;;;3.95;1.80;;;35.10;49.30;;;;;;5128221;28;20225;-77
2022/07/19 09:37:15;;;;;;;5.15;1.77;;;35.20;50.50;;;;;;5131572;28;20191;-79
2022/07/19 09:39:46;;;;;;;3.30;1.65;;;35.50;48.70;;;;;;5130040;28;20221;-79
2022/07/19 09:42:17;;;;;;;6.95;1.80;;;35.00;47.00;;;;;;5130654;28;20214;-78
2022/07/19 09:44:59;;;;;;;5.50;1.70;;;34.90;46.80;;;;;;5130740;28;20198;-78
2022/07/19 09:47:35;;;;;;;4.53;1.73;;;35.00;46.70;;;;;;5131401;28;20191;-78
2022/07/19 09:50:07;;;;;;;4.32;1.70;;;34.70;47.10;;;;;;5130306;28;20255;-80
2022/07/19 09:52:36;;;;;;;8.23;1.75;;;36.10;46.20;;;;;;5137613;27;20205;-79
2022/07/19 09:55:16;;;;;;;5.72;1.60;;;37.00;45.60;;;;;;5151628;27;20593;-81
2022/07/19 09:57:46;;;;;;;6.20;1.70;;;35.50;45.30;;;;;;5147199;27;20194;-78
2022/07/19 10:00:17;;;;;;;3.03;1.75;;;34.50;46.30;;;;;;5140758;27;20229;-76
2022/07/19 10:02:50;;;;;;;3.50;1.70;;;34.60;47.00;;;;;;5139433;27;20244;-77
2022/07/19 10:05:20;;;;;;;3.70;1.90;;;35.30;47.20;;;;;;5138544;27;20190;-78
2022/07/19 10:07:49;;;;;;;3.65;1.80;;;36.20;45.70;;;;;;5138106;27;20232;-79
2022/07/19 10:10:19;;;;;;;2.53;1.58;;;35.50;45.80;;;;;;5137206;27;20213;-79
2022/07/19 10:12:50;;;;;;;3.60;1.80;;;36.60;45.40;;;;;;5136782;27;20201;-78
2022/07/19 10:15:19;;;;;;;3.42;1.73;;;36.70;44.40;;;;;;5135948;27;20234;-80
2022/07/19 10:17:59;;;;;;;4.10;1.90;;;36.80;43.70;;;;;;5135693;27;20635;-79
2022/07/19 10:20:29;;;;;;;4.65;1.58;;;36.50;43.40;;;;;;5135671;27;20370;-80
2022/07/19 10:22:59;;;;;;;3.33;1.58;;;36.20;44.10;;;;;;5136012;27;20281;-80
2022/07/19 10:25:41;;;;;;;3.30;1.52;;;35.80;44.80;;;;;;5139914;27;20205;-79
2022/07/19 10:28:28;;;;;;;2.63;1.60;;;36.70;45.60;;;;;;5135628;27;20186;-79
2022/07/19 10:31:27;;;;;;;3.92;1.67;;;36.20;44.00;;;;;;5134467;27;20209;-79
2022/07/19 10:34:00;;;;;;;4.18;1.65;;;37.40;45.30;;;;;;5135515;27;20624;-78
2022/07/19 10:36:37;;;;;;;3.05;1.60;;;37.20;43.40;;;;;;5136002;27;20251;-81
2022/07/19 10:39:21;;;;;;;1.52;1.42;;;37.80;43.30;;;;;;5136757;27;20209;-78
2022/07/19 10:42:13;;;;;;;6.22;1.70;;;36.50;42.80;;;;;;5135035;27;20233;-80
2022/07/19 10:45:11;;;;;;;2.20;1.40;;;37.20;43.00;;;;;;5135644;27;20572;-80
2022/07/19 10:48:05;;;;;;;6.15;1.75;;;37.20;42.60;;;;;;5134933;27;20243;-78
2022/07/19 10:50:52;;;;;;;5.05;1.70;;;36.80;42.50;;;;;;5135436;27;20292;-79
2022/07/19 10:53:53;;;;;;;3.72;1.50;;;37.00;43.20;;;;;;5137917;27;20578;-77
2022/07/19 10:56:23;;;;;;;1.65;1.40;;;36.50;42.90;;;;;;5136620;27;20254;-77
2022/07/19 10:58:55;;;;;;;2.95;1.65;;;36.20;41.70;;;;;;5135310;27;20232;-78
2022/07/19 11:01:26;;;;;;;4.70;1.70;;;36.40;42.10;;;;;;5135600;27;20255;-78
2022/07/19 11:04:15;;;;;;;4.30;1.65;;;36.40;41.40;;;;;;5136144;27;20262;-79
2022/07/19 11:06:44;;;;;;;2.50;1.52;;;36.80;41.20;;;;;;5135189;27;20367;-79
2022/07/19 11:09:12;;;;;;;5.38;1.50;;;36.90;43.00;;;;;;5136613;27;20546;-81
2022/07/19 11:11:40;;;;;;;3.13;1.52;;;36.90;41.60;;;;;;5134774;27;20213;-80
2022/07/19 11:14:10;;;;;;;2.03;1.45;;;37.50;41.50;;;;;;5135572;27;20204;-79
2022/07/19 11:16:39;;;;;;;4.82;1.65;;;37.10;40.10;;;;;;5126251;27;20253;-80
2022/07/19 11:19:11;;;;;;;3.85;1.80;;;37.20;40.30;;;;;;5131221;27;20202;-80
2022/07/19 11:21:42;;;;;;;4.35;1.88;;;36.80;41.40;;;;;;5131052;27;20198;-79
2022/07/19 11:24:11;;;;;;;2.20;1.75;;;37.10;40.40;;;;;;5116206;28;20201;-78
2022/07/19 11:26:40;;;;;;;2.50;1.90;;;35.50;40.90;;;;;;5113331;28;20229;-78
2022/07/19 11:29:16;;;;;;;4.47;2.00;;;36.40;41.50;;;;;;5114733;28;20636;-79
2022/07/19 11:31:47;;;;;;;3.97;2.10;;;36.10;39.80;;;;;;5116500;28;20199;-77
2022/07/19 11:34:16;;;;;;;5.47;2.30;;;35.80;40.70;;;;;;5122688;27;20577;-78
2022/07/19 11:36:44;;;;;;;6.30;2.60;;;35.90;40.90;;;;;;5135464;27;20693;-78
2022/07/19 11:39:16;;;;;;;8.15;2.15;;;35.30;40.50;;;;;;5134779;27;20209;-79
2022/07/19 11:41:45;;;;;;;9.65;2.50;;;34.80;42.50;;;;;;5136597;27;20205;-76
2022/07/19 11:44:15;;;;;;;5.15;2.22;;;34.00;43.10;;;;;;5135731;27;20304;-80
2022/07/19 11:46:45;;;;;;;4.85;2.42;;;33.80;44.30;;;;;;5136416;27;20213;-78
2022/07/19 11:49:15;;;;;;;4.47;2.55;;;33.20;42.90;;;;;;5133545;27;20612;-79
2022/07/19 11:51:44;;;;;;;5.40;2.85;;;33.30;44.10;;;;;;5115449;28;20232;-79
2022/07/19 11:54:12;;;;;;;5.07;3.00;;;33.20;43.30;;;;;;5114989;28;20201;-76
2022/07/19 11:56:40;;;;;;;6.20;3.03;;;32.40;42.40;;;;;;5114517;28;20581;-79
2022/07/19 11:59:10;;;;;;;6.20;3.22;;;32.60;44.80;;;;;;5117844;27;20209;-77
2022/07/19 12:01:42;;;;;;;5.55;2.97;;;32.90;43.50;;;;;;5122660;28;20292;-78
2022/07/19 12:04:14;;;;;;;3.78;2.65;;;32.60;44.20;;;;;;5135986;27;20198;-78
2022/07/19 12:06:45;;;;;;;4.78;2.72;;;32.70;46.20;;;;;;5135786;27;20552;-79
2022/07/19 12:09:15;;;;;;;3.65;2.83;;;32.80;46.20;;;;;;5134336;27;20657;-77
2022/07/19 12:11:47;;;;;;;6.43;2.87;;;33.10;44.10;;;;;;5134659;27;20281;-78
2022/07/19 12:14:22;;;;;;;8.77;2.88;;;32.90;44.90;;;;;;5139624;27;20312;-77
2022/07/19 12:17:11;;;;;;;5.10;2.87;;;32.70;44.90;;;;;;5138737;27;20273;-79
2022/07/19 12:19:40;;;;;;;5.43;3.00;;;32.70;44.70;;;;;;5118468;28;20194;-78
2022/07/19 12:22:29;;;;;;;4.57;3.03;;;32.40;43.40;;;;;;5118020;28;20560;-77
2022/07/19 12:24:57;;;;;;;8.43;3.10;;;32.30;44.10;;;;;;5117508;28;20205;-77
2022/07/19 12:27:30;;;;;;;3.63;2.63;;;32.40;44.40;;;;;;5117649;28;20191;-76
2022/07/19 12:30:01;;;;;;;5.80;2.97;;;32.30;45.30;;;;;;5116784;28;20210;-76
2022/07/19 12:32:34;;;;;;;5.50;2.87;;;32.40;44.80;;;;;;5117886;28;20260;-77
2022/07/19 12:35:05;;;;;;;4.63;3.00;;;32.50;44.40;;;;;;5117855;28;20235;-77
2022/07/19 12:37:36;;;;;;;4.60;2.60;;;32.70;43.80;;;;;;5118317;28;20286;-77
2022/07/19 12:40:08;;;;;;;6.17;2.80;;;32.60;42.90;;;;;;5117174;28;20210;-76
2022/07/19 12:42:42;;;;;;;4.27;2.90;;;32.70;44.60;;;;;;5116891;28;20282;-78
2022/07/19 12:45:13;;;;;;;3.87;2.70;;;32.80;44.70;;;;;;5119022;28;20186;-77
2022/07/19 12:47:47;;;;;;;4.77;2.70;;;33.20;45.80;;;;;;5124842;27;20194;-76
2022/07/19 12:50:24;;;;;;;7.33;2.80;;;33.10;44.40;;;;;;5145107;27;20206;-76
2022/07/19 12:52:55;;;;;;;4.73;2.80;;;33.30;44.40;;;;;;5141715;27;20269;-76
2022/07/19 12:55:25;;;;;;;3.97;2.70;;;32.90;44.30;;;;;;5120861;27;20249;-77
2022/07/19 12:57:54;;;;;;;6.47;2.43;;;32.70;44.70;;;;;;5117208;28;20225;-77
2022/07/19 13:00:27;;;;;;;4.40;2.73;;;32.60;44.70;;;;;;5116274;28;20297;-77
2022/07/19 13:03:00;;;;;;;6.27;2.63;;;32.70;45.00;;;;;;5116006;28;20258;-77
2022/07/19 13:05:30;;;;;;;4.90;2.57;;;33.10;44.30;;;;;;5116710;28;20202;-76